Time;durP1;ratioP1;P1;durP2;ratioP2;P2;SDS_P1;SDS_P2;PMS_P1;PMS_P2;Temp;Humidity;BMP_temperature;BMP_pressure;BME280_temperature;BME280_humidity;BME280_pressure;Samples;Min_cycle;Max_cycle;Signal;HPM_P1;HPM_P2
2022/09/01 00:00:21;;;;;;;3.05;1.20;;;23.60;99.40;;;;;;10327274;28;20205;-89
2022/09/01 00:05:24;;;;;;;1.67;1.30;;;23.60;99.40;;;;;;10328272;28;20633;-89
2022/09/01 00:10:28;;;;;;;1.52;0.95;;;23.60;99.40;;;;;;10326702;28;20283;-89
2022/09/01 00:15:31;;;;;;;1.52;1.27;;;23.60;99.40;;;;;;10343558;28;20205;-88
2022/09/01 00:20:33;;;;;;;1.73;1.05;;;23.50;99.40;;;;;;10326910;28;20205;-88
2022/09/01 00:25:36;;;;;;;2.00;0.95;;;23.50;99.40;;;;;;10311408;28;20574;-88
2022/09/01 00:30:38;;;;;;;1.33;0.88;;;23.50;99.50;;;;;;10327360;28;20630;-89
2022/09/01 00:35:44;;;;;;;1.38;1.15;;;23.50;99.50;;;;;;10326549;28;20216;-89
2022/09/01 00:40:46;;;;;;;1.58;1.30;;;23.50;99.50;;;;;;10311109;28;20244;-89
2022/09/01 00:45:50;;;;;;;1.08;0.77;;;23.50;99.50;;;;;;10327391;28;20204;-88
2022/09/01 00:50:53;;;;;;;1.40;0.90;;;23.40;99.50;;;;;;10326166;28;20248;-88
2022/09/01 00:55:56;;;;;;;1.15;0.80;;;23.40;99.60;;;;;;10342785;28;20611;-88
2022/09/01 01:00:58;;;;;;;0.90;0.75;;;23.40;99.80;;;;;;10326463;28;20209;-89
2022/09/01 01:06:07;;;;;;;1.42;0.90;;;23.40;99.60;;;;;;10309856;28;20245;-88
2022/09/01 01:11:19;;;;;;;1.50;0.80;;;23.40;99.70;;;;;;10333505;28;20697;-88
2022/09/01 01:16:23;;;;;;;2.00;1.02;;;23.40;99.70;;;;;;10334624;28;20193;-88
2022/09/01 01:27:00;;;;;;;1.33;0.90;;;23.30;99.60;;;;;;10333398;28;20275;-88
2022/09/01 01:32:08;;;;;;;1.70;0.85;;;23.30;99.70;;;;;;10332336;28;20260;-88
2022/09/01 01:37:13;;;;;;;0.80;0.80;;;23.30;99.80;;;;;;10332450;28;20208;-89
2022/09/01 01:42:16;;;;;;;1.15;0.85;;;23.30;99.80;;;;;;10332749;28;20200;-88
2022/09/01 01:47:19;;;;;;;2.10;1.13;;;23.30;99.80;;;;;;10331334;28;20205;-88
2022/09/01 01:52:21;;;;;;;1.88;1.05;;;23.30;99.80;;;;;;10331754;28;20776;-87
2022/09/01 01:57:30;;;;;;;1.27;1.15;;;23.30;99.80;;;;;;10337890;28;20623;-87
2022/09/01 02:02:33;;;;;;;1.20;1.10;;;23.20;99.80;;;;;;10332605;28;20212;-86
2022/09/01 02:07:36;;;;;;;1.23;1.00;;;23.20;99.80;;;;;;10312882;28;20209;-87
2022/09/01 02:12:41;;;;;;;1.02;0.80;;;23.20;99.80;;;;;;10330067;28;20260;-88
2022/09/01 02:17:45;;;;;;;1.02;0.80;;;23.20;99.70;;;;;;10327685;28;20557;-87
2022/09/01 02:22:50;;;;;;;2.00;1.17;;;23.20;99.80;;;;;;10330255;28;20233;-87
2022/09/01 02:27:54;;;;;;;1.38;1.10;;;23.20;99.90;;;;;;10314334;28;20569;-88
2022/09/01 02:32:57;;;;;;;1.10;0.88;;;23.20;99.90;;;;;;10330097;28;20705;-88
2022/09/01 02:38:00;;;;;;;1.20;1.10;;;23.10;99.90;;;;;;10330179;28;20213;-88
2022/09/01 02:43:03;;;;;;;2.00;1.05;;;23.10;99.80;;;;;;10329057;28;20303;-87
2022/09/01 02:48:08;;;;;;;1.27;1.00;;;23.10;99.90;;;;;;10329268;28;20209;-88
2022/09/01 02:53:14;;;;;;;1.40;0.98;;;23.10;99.90;;;;;;10329284;28;20624;-87
2022/09/01 02:58:18;;;;;;;2.25;0.90;;;23.10;99.90;;;;;;10328929;28;20233;-87
2022/09/01 03:03:27;;;;;;;2.65;1.20;;;23.10;99.90;;;;;;10328919;28;20259;-88
2022/09/01 03:08:33;;;;;;;1.10;0.90;;;23.10;99.90;;;;;;10327246;28;20307;-87
2022/09/01 03:13:38;;;;;;;1.02;0.82;;;23.10;99.90;;;;;;10327535;28;20322;-87
2022/09/01 03:18:41;;;;;;;1.45;0.90;;;23.10;99.90;;;;;;10328883;28;20205;-88
2022/09/01 03:23:45;;;;;;;1.65;0.90;;;23.00;99.90;;;;;;10310950;28;20216;-88
2022/09/01 03:28:49;;;;;;;1.30;1.00;;;23.00;99.90;;;;;;10327272;28;20204;-88
2022/09/01 03:33:54;;;;;;;1.73;1.00;;;23.00;99.90;;;;;;10326999;28;20724;-87
2022/09/01 03:39:00;;;;;;;1.13;0.95;;;23.00;99.90;;;;;;10327683;28;20453;-87
2022/09/01 03:44:05;;;;;;;1.35;0.90;;;23.00;99.90;;;;;;10326886;28;20209;-87
2022/09/01 03:49:14;;;;;;;1.85;1.27;;;23.00;99.90;;;;;;10327372;28;20236;-87
2022/09/01 03:54:16;;;;;;;1.85;1.05;;;23.00;99.90;;;;;;10326061;28;20842;-87
2022/09/01 03:59:21;;;;;;;1.45;0.98;;;22.90;99.90;;;;;;10327215;28;20291;-87
2022/09/01 04:04:24;;;;;;;1.58;1.30;;;22.90;99.90;;;;;;10328208;28;20232;-87
2022/09/01 04:09:27;;;;;;;1.08;0.90;;;22.90;99.90;;;;;;10326375;28;20310;-87
2022/09/01 04:14:29;;;;;;;1.40;1.17;;;22.90;99.90;;;;;;10326537;28;20650;-87
2022/09/01 04:19:35;;;;;;;1.42;1.02;;;22.90;99.90;;;;;;10326710;28;20205;-87
2022/09/01 04:24:44;;;;;;;1.33;1.20;;;22.90;99.90;;;;;;10310421;28;20236;-87
2022/09/01 04:29:47;;;;;;;1.60;0.82;;;22.90;99.90;;;;;;10327853;28;20208;-87
2022/09/01 04:34:50;;;;;;;1.10;0.95;;;22.90;99.90;;;;;;10326872;28;20237;-87
2022/09/01 04:39:54;;;;;;;1.13;1.02;;;22.90;99.90;;;;;;10326337;28;20213;-87
2022/09/01 04:45:00;;;;;;;1.35;1.00;;;22.90;99.90;;;;;;10334603;28;20209;-87
2022/09/01 04:50:16;;;;;;;1.80;1.33;;;22.80;99.90;;;;;;10335328;28;20236;-87
2022/09/01 04:55:43;;;;;;;1.50;1.30;;;22.80;99.90;;;;;;10329145;28;20264;-88
2022/09/01 05:00:52;;;;;;;1.92;1.08;;;22.90;99.90;;;;;;10333256;28;20209;-87
2022/09/01 05:05:59;;;;;;;1.83;0.90;;;22.80;99.90;;;;;;10316732;28;20240;-87
2022/09/01 05:11:06;;;;;;;1.60;1.10;;;22.80;99.90;;;;;;10334046;28;20643;-87
2022/09/01 05:16:20;;;;;;;1.20;1.10;;;22.90;99.90;;;;;;10316184;28;20233;-87
2022/09/01 05:21:29;;;;;;;1.10;1.00;;;22.90;99.90;;;;;;10331863;28;20267;-87
2022/09/01 05:26:33;;;;;;;2.03;0.80;;;22.90;99.90;;;;;;10316472;28;20202;-87
2022/09/01 05:31:37;;;;;;;2.38;1.10;;;22.90;99.80;;;;;;10331127;28;20291;-87
2022/09/01 05:36:43;;;;;;;0.77;0.75;;;23.00;99.80;;;;;;10315840;28;20710;-87
2022/09/01 05:41:48;;;;;;;1.20;1.10;;;23.00;99.80;;;;;;10332343;28;20232;-86
2022/09/01 05:46:52;;;;;;;2.33;1.30;;;23.00;99.70;;;;;;10331200;28;20297;-87
2022/09/01 05:51:57;;;;;;;1.10;1.00;;;23.00;99.70;;;;;;10332351;28;20236;-87
2022/09/01 05:57:02;;;;;;;1.85;1.08;;;23.00;99.80;;;;;;10331369;28;20648;-88
2022/09/01 06:02:27;;;;;;;1.73;1.15;;;23.00;99.70;;;;;;10318977;28;20237;-88
2022/09/01 06:07:32;;;;;;;1.75;1.30;;;23.00;99.70;;;;;;10315039;28;20213;-89
2022/09/01 06:12:36;;;;;;;1.33;0.98;;;23.00;99.80;;;;;;10331643;28;20307;-88
2022/09/01 06:17:39;;;;;;;1.63;0.85;;;23.00;99.80;;;;;;10331462;28;20201;-89
2022/09/01 06:22:44;;;;;;;1.10;0.88;;;23.00;99.80;;;;;;10336769;28;20213;-88
2022/09/01 06:27:47;;;;;;;1.80;1.25;;;23.00;99.90;;;;;;10316094;28;20209;-88
2022/09/01 06:32:54;;;;;;;1.67;0.70;;;22.70;96.80;;;;;;10316489;28;20256;-88
2022/09/01 06:37:57;;;;;;;3.83;0.55;;;22.20;98.20;;;;;;10330013;28;20209;-89
2022/09/01 06:43:11;;;;;;;2.40;1.13;;;22.50;97.70;;;;;;10330430;28;20583;-88
2022/09/01 06:48:17;;;;;;;3.38;0.60;;;22.50;97.80;;;;;;10327997;28;20233;-91
2022/09/01 06:53:20;;;;;;;7.43;1.17;;;21.90;98.90;;;;;;10330974;28;20288;-90
2022/09/01 06:58:46;;;;;;;3.72;0.98;;;22.10;98.30;;;;;;10331062;28;20247;-92
2022/09/01 07:03:51;;;;;;;1.33;0.47;;;22.30;98.20;;;;;;10330115;28;20205;-93
2022/09/01 07:09:03;;;;;;;2.28;0.82;;;22.40;98.10;;;;;;10330715;28;20653;-91
2022/09/01 07:14:47;;;;;;;4.35;0.55;;;22.60;97.80;;;;;;10335542;28;20224;-92
2022/09/01 07:20:10;;;;;;;0.63;0.45;;;22.60;96.40;;;;;;10332575;28;20229;-91
2022/09/01 07:25:30;;;;;;;0.88;0.60;;;22.70;97.50;;;;;;10330092;28;20236;-93
2022/09/01 07:31:07;;;;;;;0.90;0.50;;;22.80;97.50;;;;;;10328929;28;20204;-93
2022/09/01 07:36:32;;;;;;;4.43;0.80;;;22.90;97.20;;;;;;10323531;28;20244;-90
2022/09/01 07:41:54;;;;;;;2.88;0.70;;;21.90;98.50;;;;;;10321163;28;20228;-88
2022/09/01 07:47:49;;;;;;;2.72;0.63;;;22.90;96.50;;;;;;10322516;28;20700;-89
2022/09/01 07:53:00;;;;;;;1.05;0.47;;;23.60;94.80;;;;;;10299649;28;20256;-89
2022/09/01 07:58:50;;;;;;;2.78;0.70;;;24.00;93.70;;;;;;10323912;28;20197;-88
2022/09/01 08:04:41;;;;;;;2.58;0.50;;;24.20;93.10;;;;;;10618254;23;20238;-84
2022/09/01 08:09:44;;;;;;;1.95;0.90;;;24.60;92.80;;;;;;10488167;28;20225;-85
2022/09/01 08:14:51;;;;;;;0.95;0.50;;;24.40;93.10;;;;;;10483958;28;20310;-83
2022/09/01 08:20:14;;;;;;;1.50;0.50;;;24.70;92.50;;;;;;10511230;28;20221;-84
2022/09/01 08:25:29;;;;;;;0.70;0.35;;;25.00;92.00;;;;;;10542931;22;20249;-83
2022/09/01 08:30:34;;;;;;;2.92;0.65;;;25.10;91.60;;;;;;10492040;28;20866;-83
2022/09/01 08:35:42;;;;;;;3.15;0.65;;;25.10;91.20;;;;;;10492525;28;20287;-84
2022/09/01 08:40:54;;;;;;;1.15;0.77;;;24.90;91.80;;;;;;10491144;28;20621;-84
2022/09/01 08:46:18;;;;;;;0.55;0.32;;;25.10;91.60;;;;;;10495951;28;20234;-84
2022/09/01 08:51:42;;;;;;;0.47;0.40;;;24.90;91.70;;;;;;10492528;28;20670;-84
2022/09/01 08:56:46;;;;;;;1.20;0.30;;;25.20;90.90;;;;;;10491756;28;20266;-84
2022/09/01 09:01:58;;;;;;;1.73;0.70;;;24.70;92.30;;;;;;10500771;28;20371;-85
2022/09/01 09:07:18;;;;;;;0.40;0.30;;;25.20;91.30;;;;;;10492922;28;20633;-82
2022/09/01 09:12:50;;;;;;;0.45;0.30;;;25.30;90.90;;;;;;10493509;28;20233;-82
2022/09/01 09:18:03;;;;;;;1.42;0.52;;;25.20;91.30;;;;;;10488301;28;20246;-82
2022/09/01 09:23:28;;;;;;;0.43;0.25;;;25.20;90.40;;;;;;10508339;28;20287;-83
2022/09/01 09:28:30;;;;;;;0.28;0.28;;;25.10;91.10;;;;;;10514948;28;20661;-82
2022/09/01 09:33:38;;;;;;;0.80;0.40;;;25.10;91.00;;;;;;10514812;28;20241;-83
2022/09/01 09:39:18;;;;;;;1.27;0.40;;;24.90;91.40;;;;;;10533738;28;20287;-83
2022/09/01 09:44:28;;;;;;;0.98;0.50;;;25.20;90.90;;;;;;10532152;28;20282;-83
2022/09/01 09:49:33;;;;;;;0.52;0.35;;;25.20;90.90;;;;;;10531115;28;20251;-83
2022/09/01 09:55:20;;;;;;;0.45;0.30;;;25.30;90.20;;;;;;10517310;28;20369;-83
2022/09/01 10:00:33;;;;;;;0.35;0.30;;;24.90;90.50;;;;;;10533712;28;20213;-83
2022/09/01 10:05:47;;;;;;;0.50;0.30;;;25.40;90.00;;;;;;10529645;28;20637;-83
2022/09/01 10:10:51;;;;;;;1.50;0.50;;;25.60;89.10;;;;;;10529898;28;20270;-82
2022/09/01 10:16:06;;;;;;;0.50;0.38;;;25.40;88.80;;;;;;10531792;28;20303;-82
2022/09/01 10:21:25;;;;;;;0.52;0.43;;;25.10;89.70;;;;;;10532933;28;20233;-82
2022/09/01 10:26:34;;;;;;;0.20;0.20;;;25.40;89.60;;;;;;10531132;28;20290;-83
2022/09/01 10:31:40;;;;;;;0.30;0.30;;;24.40;63.60;;;;;;10531821;28;20228;-83
2022/09/01 10:36:44;;;;;;;0.40;0.20;;;25.00;91.40;;;;;;10532172;28;20249;-83
2022/09/01 10:41:50;;;;;;;0.30;0.30;;;25.10;89.70;;;;;;10532635;28;20255;-83
2022/09/01 10:47:08;;;;;;;3.20;0.38;;;25.10;88.60;;;;;;10533615;28;20762;-82
2022/09/01 10:52:40;;;;;;;0.70;0.20;;;24.00;91.00;;;;;;10530859;28;20237;-83
2022/09/01 10:57:44;;;;;;;0.30;0.20;;;25.00;91.20;;;;;;10513040;28;20264;-83
2022/09/01 11:03:12;;;;;;;0.68;0.35;;;25.00;86.80;;;;;;10532077;28;20685;-83
2022/09/01 11:08:43;;;;;;;0.30;0.20;;;24.80;91.40;;;;;;10523583;28;20657;-83
2022/09/01 11:13:55;;;;;;;2.75;0.50;;;23.80;60.20;;;;;;10531950;28;20260;-84
2022/09/01 11:19:20;;;;;;;1.23;0.40;;;23.10;94.90;;;;;;10512246;28;20229;-84
2022/09/01 11:24:41;;;;;;;1.13;0.30;;;23.70;95.20;;;;;;10511281;28;20733;-84
2022/09/01 11:29:59;;;;;;;1.35;0.50;;;23.90;95.00;;;;;;10528382;28;20224;-85
2022/09/01 11:35:05;;;;;;;0.30;0.30;;;24.40;93.50;;;;;;10533643;28;20245;-83
2022/09/01 11:40:09;;;;;;;2.05;0.35;;;24.40;92.00;;;;;;10513037;28;20774;-84
2022/09/01 11:45:18;;;;;;;0.65;0.38;;;24.80;93.20;;;;;;10516038;28;20213;-84
2022/09/01 11:50:32;;;;;;;0.77;0.30;;;25.00;91.30;;;;;;10511315;28;20617;-84
2022/09/01 11:55:39;;;;;;;1.23;0.30;;;24.70;78.90;;;;;;10529580;28;20248;-84
2022/09/01 12:00:42;;;;;;;0.50;0.30;;;24.70;92.90;;;;;;10512151;28;20271;-84
2022/09/01 12:05:49;;;;;;;0.68;0.38;;;24.90;92.20;;;;;;10510816;28;20617;-84
2022/09/01 12:11:31;;;;;;;0.55;0.40;;;25.10;92.00;;;;;;10495700;28;20734;-83
2022/09/01 12:16:35;;;;;;;0.47;0.28;;;25.20;91.50;;;;;;10494335;28;20245;-85
2022/09/01 12:21:42;;;;;;;2.03;0.32;;;24.40;92.20;;;;;;10507495;28;20305;-86
2022/09/01 12:26:47;;;;;;;1.05;0.20;;;25.10;91.60;;;;;;10527766;28;20241;-85
2022/09/01 12:31:51;;;;;;;0.68;0.30;;;24.90;92.30;;;;;;10528567;28;20237;-83
2022/09/01 12:37:23;;;;;;;0.25;0.25;;;24.80;91.10;;;;;;10526809;28;20663;-83
2022/09/01 12:42:29;;;;;;;0.40;0.30;;;25.00;91.30;;;;;;10529383;28;20249;-84
2022/09/01 12:47:47;;;;;;;0.60;0.40;;;24.60;92.20;;;;;;10506698;28;20241;-84
2022/09/01 12:52:57;;;;;;;0.82;0.28;;;25.00;91.30;;;;;;10521111;28;20237;-84
2022/09/01 12:58:03;;;;;;;0.20;0.20;;;25.00;91.30;;;;;;10524899;28;20263;-84
2022/09/01 13:03:16;;;;;;;1.88;0.30;;;25.10;91.10;;;;;;10527976;28;20259;-84
2022/09/01 13:08:24;;;;;;;5.07;0.50;;;25.00;91.00;;;;;;10535209;28;20229;-83
2022/09/01 13:13:29;;;;;;;3.90;0.60;;;24.70;81.70;;;;;;10517943;28;20259;-83
2022/09/01 13:18:31;;;;;;;0.70;0.40;;;24.70;91.80;;;;;;10535123;28;20225;-83
2022/09/01 13:23:34;;;;;;;2.58;0.40;;;24.70;91.80;;;;;;10532635;28;20288;-83
2022/09/01 13:28:37;;;;;;;2.03;0.70;;;23.80;86.00;;;;;;10536035;28;20247;-83
2022/09/01 13:33:42;;;;;;;0.75;0.50;;;23.90;93.80;;;;;;10533149;28;20225;-86
2022/09/01 13:39:04;;;;;;;1.05;0.43;;;24.70;92.10;;;;;;10518355;28;20237;-83
2022/09/01 13:44:08;;;;;;;4.05;0.73;;;24.70;91.90;;;;;;10529082;28;20225;-83
2022/09/01 13:49:11;;;;;;;1.25;0.32;;;23.10;84.50;;;;;;10502808;28;20247;-85
2022/09/01 13:54:33;;;;;;;1.17;0.30;;;24.00;92.10;;;;;;10510974;28;20304;-85
2022/09/01 13:59:36;;;;;;;2.08;0.40;;;23.60;76.10;;;;;;10532945;28;20229;-84
2022/09/01 14:04:39;;;;;;;1.17;0.57;;;24.20;82.80;;;;;;10518630;28;20723;-83
2022/09/01 14:09:41;;;;;;;1.02;0.40;;;24.00;93.70;;;;;;10537184;28;20280;-82
2022/09/01 14:14:44;;;;;;;1.10;0.30;;;23.70;79.40;;;;;;10516318;28;20256;-83
2022/09/01 14:20:11;;;;;;;1.38;0.50;;;23.90;90.10;;;;;;10517727;28;20202;-83
2022/09/01 14:25:15;;;;;;;0.77;0.50;;;24.20;93.40;;;;;;10531625;28;20283;-83
2022/09/01 14:30:23;;;;;;;0.65;0.50;;;24.20;93.10;;;;;;10519152;28;20233;-84
2022/09/01 14:35:32;;;;;;;1.60;0.70;;;24.40;87.70;;;;;;10535919;28;20662;-84
2022/09/01 14:40:37;;;;;;;0.80;0.50;;;24.60;92.00;;;;;;10525250;28;20578;-83
2022/09/01 14:45:47;;;;;;;0.73;0.43;;;24.50;91.80;;;;;;10178105;28;9999719;-84
2022/09/01 14:50:49;;;;;;;0.75;0.30;;;24.30;73.10;;;;;;10501240;28;20264;-82
2022/09/01 14:55:52;;;;;;;0.35;0.30;;;23.50;87.80;;;;;;10488625;28;20258;-83
2022/09/01 15:00:58;;;;;;;1.15;0.45;;;23.50;86.60;;;;;;10491738;28;20234;-82
2022/09/01 15:06:21;;;;;;;2.88;0.38;;;23.20;90.60;;;;;;10491269;28;20616;-83
2022/09/01 15:11:24;;;;;;;4.28;0.43;;;23.90;84.30;;;;;;10510400;28;20760;-83
2022/09/01 15:16:27;;;;;;;1.30;0.40;;;23.90;85.90;;;;;;10530358;28;20287;-83
2022/09/01 15:21:32;;;;;;;4.65;0.40;;;23.90;86.40;;;;;;10529891;28;20265;-82
2022/09/01 15:26:37;;;;;;;0.93;0.40;;;23.50;81.90;;;;;;10530719;28;20259;-83
2022/09/01 15:31:41;;;;;;;0.45;0.28;;;23.20;84.10;;;;;;10496278;28;20310;-83
2022/09/01 15:36:44;;;;;;;1.80;0.40;;;23.60;88.00;;;;;;10531527;28;20637;-83
2022/09/01 15:41:46;;;;;;;2.58;1.42;;;23.60;88.30;;;;;;10531437;28;20652;-83
2022/09/01 15:46:49;;;;;;;0.77;0.50;;;23.20;88.50;;;;;;10513274;28;20241;-83
2022/09/01 15:51:55;;;;;;;3.03;0.65;;;23.50;88.20;;;;;;10530303;28;20233;-81
2022/09/01 15:56:58;;;;;;;0.85;0.40;;;23.10;90.30;;;;;;10529704;28;20252;-81
2022/09/01 16:02:00;;;;;;;0.80;0.38;;;22.20;87.00;;;;;;10530684;28;20269;-83
2022/09/01 16:07:03;;;;;;;3.45;0.50;;;23.10;91.80;;;;;;10530634;28;20294;-83
2022/09/01 16:12:07;;;;;;;0.90;0.38;;;23.40;91.30;;;;;;10512633;28;20989;-83
2022/09/01 16:17:19;;;;;;;1.20;0.60;;;23.40;91.00;;;;;;10530830;28;20253;-83
2022/09/01 16:22:27;;;;;;;1.00;0.30;;;23.50;91.30;;;;;;10529654;28;20257;-82
2022/09/01 16:27:34;;;;;;;0.40;0.40;;;23.30;91.80;;;;;;10512033;28;20232;-83
2022/09/01 16:32:40;;;;;;;0.40;0.30;;;23.40;91.60;;;;;;10512199;28;20241;-83
2022/09/01 16:38:10;;;;;;;1.40;0.68;;;23.20;92.10;;;;;;10531857;28;20261;-83
2022/09/01 16:43:37;;;;;;;0.35;0.25;;;23.40;92.10;;;;;;10520698;28;20233;-83
2022/09/01 16:48:40;;;;;;;1.85;0.30;;;23.30;92.30;;;;;;10539368;28;20627;-83
2022/09/01 16:54:24;;;;;;;1.25;0.28;;;23.30;92.40;;;;;;10537984;28;20229;-83
2022/09/01 16:59:50;;;;;;;1.30;0.60;;;23.30;92.60;;;;;;10448331;28;20242;-83
2022/09/01 17:05:24;;;;;;;1.25;0.30;;;23.20;92.70;;;;;;10447977;28;20320;-83
2022/09/01 17:10:45;;;;;;;0.38;0.20;;;23.20;93.00;;;;;;10441791;28;20258;-83
2022/09/01 17:16:06;;;;;;;0.77;0.50;;;23.20;93.30;;;;;;10414732;28;20308;-83
2022/09/01 17:21:15;;;;;;;1.48;0.30;;;23.10;93.40;;;;;;10426900;28;20262;-82
2022/09/01 17:26:27;;;;;;;0.70;0.47;;;23.10;93.70;;;;;;10429108;28;20321;-83
2022/09/01 17:31:47;;;;;;;0.85;0.82;;;23.00;94.00;;;;;;10467497;28;20285;-83
2022/09/01 17:37:14;;;;;;;0.73;0.30;;;23.00;94.20;;;;;;10513341;28;20252;-83
2022/09/01 17:42:29;;;;;;;1.70;0.30;;;23.00;94.60;;;;;;10533280;28;20228;-83
2022/09/01 17:47:45;;;;;;;0.50;0.20;;;22.90;94.70;;;;;;10183469;28;10000461;-83
2022/09/01 17:53:23;;;;;;;1.30;0.82;;;22.90;94.90;;;;;;10515372;28;20290;-82
2022/09/01 17:58:39;;;;;;;2.28;0.90;;;22.90;95.20;;;;;;10514038;28;20283;-85
2022/09/01 18:04:08;;;;;;;11.25;1.35;;;22.70;94.70;;;;;;10529482;28;20290;-84
2022/09/01 18:09:16;;;;;;;2.10;0.88;;;16.30;99.90;;;;;;10524137;28;20238;-84
2022/09/01 18:14:26;;;;;;;8.95;1.15;;;18.50;99.90;;;;;;10519527;28;20655;-83
2022/09/01 18:19:36;;;;;;;3.08;1.25;;;21.10;99.90;;;;;;10501921;28;20261;-82
2022/09/01 18:25:02;;;;;;;5.90;1.55;;;15.70;99.90;;;;;;10532279;28;20673;-83
2022/09/01 18:30:05;;;;;;;5.07;1.50;;;15.20;99.90;;;;;;10519208;28;20666;-83
2022/09/01 18:35:36;;;;;;;1.00;0.80;;;;;;;;;;10518480;28;20347;-83
2022/09/01 18:41:20;;;;;;;2.95;1.17;;;16.50;99.90;;;;;;10535003;28;20225;-82
2022/09/01 18:46:34;;;;;;;8.98;1.38;;;21.80;99.90;;;;;;10515936;28;20237;-83
2022/09/01 18:52:25;;;;;;;6.18;1.60;;;23.30;99.90;;;;;;10178641;28;10000386;-84
2022/09/01 18:57:36;;;;;;;1.88;1.13;;;24.00;97.50;;;;;;10334130;28;20347;-83
2022/09/01 19:02:59;;;;;;;7.63;1.73;;;24.50;95.60;;;;;;10361361;28;20306;-83
2022/09/01 19:08:02;;;;;;;3.70;0.90;;;24.80;94.40;;;;;;10360167;28;20251;-83
2022/09/01 19:13:26;;;;;;;5.13;1.05;;;25.00;93.60;;;;;;10362434;28;20247;-83
2022/09/01 19:18:45;;;;;;;1.42;0.98;;;25.10;93.20;;;;;;10360170;28;20326;-84
2022/09/01 19:24:01;;;;;;;1.60;1.23;;;25.20;92.90;;;;;;10359409;28;20267;-83
2022/09/01 19:29:17;;;;;;;3.55;1.33;;;25.20;92.70;;;;;;10389486;28;20342;-84
2022/09/01 19:34:25;;;;;;;2.53;0.98;;;25.30;92.50;;;;;;10511991;28;20270;-85
2022/09/01 19:39:34;;;;;;;6.18;1.63;;;25.30;92.40;;;;;;10511791;28;20294;-84
2022/09/01 19:44:47;;;;;;;3.30;1.35;;;25.30;92.40;;;;;;10511631;28;21167;-84
2022/09/01 19:50:08;;;;;;;8.77;2.13;;;23.20;96.30;;;;;;10507539;28;20237;-84
2022/09/01 19:55:13;;;;;;;7.88;1.42;;;19.30;99.90;;;;;;10533836;28;20205;-83
2022/09/01 20:00:23;;;;;;;2.00;1.00;;;19.50;99.90;;;;;;10512485;28;20187;-82
2022/09/01 20:05:30;;;;;;;3.10;1.55;;;23.40;99.90;;;;;;10493073;28;20221;-83
2022/09/01 20:11:11;;;;;;;3.55;0.88;;;24.40;99.30;;;;;;10515330;28;20604;-83
2022/09/01 20:16:31;;;;;;;7.47;0.95;;;24.70;97.90;;;;;;10363390;28;20243;-84
2022/09/01 20:21:38;;;;;;;5.28;1.00;;;24.70;97.10;;;;;;10339380;28;20286;-84
2022/09/01 20:27:10;;;;;;;1.52;1.08;;;24.70;97.50;;;;;;10339576;28;20741;-87
2022/09/01 20:32:21;;;;;;;2.03;0.90;;;25.00;96.80;;;;;;10344110;28;20286;-87
2022/09/01 20:37:37;;;;;;;4.30;1.13;;;25.00;96.60;;;;;;10324922;28;20670;-85
2022/09/01 20:43:24;;;;;;;4.28;0.82;;;25.00;96.30;;;;;;10347255;28;20606;-84
2022/09/01 20:48:29;;;;;;;1.92;1.25;;;25.00;96.20;;;;;;10510361;28;20670;-83
2022/09/01 20:53:52;;;;;;;1.30;0.65;;;24.90;96.10;;;;;;10529180;28;20233;-83
2022/09/01 20:59:01;;;;;;;1.88;0.88;;;24.80;91.80;;;;;;10530130;28;20249;-84
2022/09/01 21:04:16;;;;;;;6.35;1.40;;;16.10;99.90;;;;;;10526457;28;20201;-84
2022/09/01 21:09:46;;;;;;;2.00;0.90;;;22.20;99.90;;;;;;10532064;28;20263;-84
2022/09/01 21:15:18;;;;;;;4.60;0.95;;;23.80;99.90;;;;;;10530172;28;20789;-85
2022/09/01 21:20:36;;;;;;;5.22;1.10;;;24.20;99.40;;;;;;10510402;28;20733;-84
2022/09/01 21:25:41;;;;;;;3.72;1.00;;;24.40;98.70;;;;;;10518715;28;20233;-84
2022/09/01 21:30:43;;;;;;;2.65;1.05;;;24.40;98.20;;;;;;10539338;28;20233;-84
2022/09/01 21:35:46;;;;;;;2.75;0.93;;;24.50;97.90;;;;;;10519993;28;20245;-84
2022/09/01 21:40:50;;;;;;;4.00;0.90;;;24.50;97.70;;;;;;10538842;28;20279;-84
2022/09/01 21:45:53;;;;;;;2.78;1.08;;;24.50;97.50;;;;;;10538489;28;20230;-84
2022/09/01 21:50:55;;;;;;;1.77;1.05;;;24.50;97.40;;;;;;10520000;28;20581;-84
2022/09/01 21:55:58;;;;;;;1.95;0.77;;;24.50;97.20;;;;;;10503751;28;20237;-84
2022/09/01 22:01:01;;;;;;;3.67;0.93;;;24.50;97.10;;;;;;10518974;28;20225;-84
2022/09/01 22:06:04;;;;;;;1.98;1.35;;;24.50;97.30;;;;;;10504796;28;20578;-84
2022/09/01 22:11:08;;;;;;;1.67;1.05;;;24.40;97.10;;;;;;10517953;28;20236;-84
2022/09/01 22:16:16;;;;;;;3.90;1.10;;;24.40;97.00;;;;;;10537806;28;20271;-84
2022/09/01 22:21:19;;;;;;;1.33;0.80;;;24.40;97.00;;;;;;10519188;28;20586;-84
2022/09/01 22:26:28;;;;;;;1.65;1.30;;;24.40;97.20;;;;;;10517826;28;20353;-84
2022/09/01 22:31:32;;;;;;;1.85;1.00;;;24.40;97.00;;;;;;10536829;28;20291;-84
2022/09/01 22:36:38;;;;;;;2.67;1.25;;;24.40;97.00;;;;;;10517449;28;20241;-84
2022/09/01 22:41:41;;;;;;;1.83;1.02;;;24.30;97.00;;;;;;10536301;28;20279;-84
2022/09/01 22:46:44;;;;;;;2.47;1.10;;;24.30;97.00;;;;;;10536036;28;20233;-84
2022/09/01 22:51:46;;;;;;;2.35;1.10;;;24.30;97.00;;;;;;10516837;28;20237;-84
2022/09/01 22:56:49;;;;;;;1.83;1.02;;;24.20;97.00;;;;;;10535742;28;20294;-84
2022/09/01 23:01:51;;;;;;;3.20;1.10;;;24.20;97.10;;;;;;10515639;28;20667;-84
2022/09/01 23:06:54;;;;;;;2.75;0.98;;;24.10;97.10;;;;;;10517738;28;20609;-84
2022/09/01 23:11:56;;;;;;;1.85;1.30;;;24.10;97.10;;;;;;10517359;28;20294;-84
2022/09/01 23:16:59;;;;;;;1.33;0.60;;;24.10;97.10;;;;;;10515753;28;20249;-84
2022/09/01 23:22:02;;;;;;;1.42;0.88;;;24.10;97.20;;;;;;10534107;28;20660;-84
2022/09/01 23:27:04;;;;;;;1.48;1.10;;;24.00;97.20;;;;;;10534439;28;20241;-84
2022/09/01 23:32:07;;;;;;;1.80;1.08;;;24.00;97.20;;;;;;10515496;28;20681;-84
2022/09/01 23:37:09;;;;;;;4.00;1.30;;;24.00;97.30;;;;;;10516620;28;20260;-84
2022/09/01 23:42:12;;;;;;;1.15;1.00;;;24.00;97.30;;;;;;10515582;28;20237;-84
2022/09/01 23:47:14;;;;;;;1.52;1.33;;;24.00;97.30;;;;;;10514429;28;20290;-84
2022/09/01 23:52:17;;;;;;;1.85;1.20;;;24.00;97.30;;;;;;10514926;28;20670;-84
2022/09/01 23:57:19;;;;;;;1.27;0.95;;;24.00;97.30;;;;;;10533496;28;20437;-84
